createdAt,value
2022-11-01T00:01:29.589Z,98760.13
2022-11-01T00:03:56.710Z,98752.16
2022-11-01T00:06:24.119Z,98754.97
2022-11-01T00:08:50.697Z,98756.66
2022-11-01T00:11:18.358Z,98761.09
2022-11-01T00:13:49.376Z,98757.63
2022-11-01T00:16:17.777Z,98757.75
2022-11-01T00:18:44.526Z,98757.75
2022-11-01T00:21:12.298Z,98752.53
2022-11-01T00:23:39.583Z,98747.13
2022-11-01T00:26:07.050Z,98747.22
2022-11-01T00:28:34.406Z,98743.75
2022-11-01T00:31:01.595Z,98738.44
2022-11-01T00:33:28.137Z,98745.53
2022-11-01T00:35:54.752Z,98743.00
2022-11-01T00:38:21.328Z,98730.97
2022-11-01T00:40:47.955Z,98740.34
2022-11-01T00:43:14.706Z,98736.88
2022-11-01T00:45:44.504Z,98737.84
2022-11-01T00:48:12.296Z,98743.97
2022-11-01T00:50:39.929Z,98746.63
2022-11-01T00:53:07.354Z,98717.56
2022-11-01T00:55:34.223Z,98742.28
2022-11-01T00:58:01.152Z,98733.47
2022-11-01T01:00:27.912Z,98727.34
2022-11-01T01:02:55.004Z,98716.81
2022-11-01T01:05:21.709Z,98722.13
2022-11-01T01:07:48.227Z,98722.13
2022-11-01T01:10:15.201Z,98730.09
2022-11-01T01:12:41.731Z,98725.66
2022-11-01T01:15:08.810Z,98722.13
2022-11-01T01:17:35.766Z,98707.28
2022-11-01T01:20:02.298Z,98711.66
2022-11-01T01:22:28.828Z,98707.28
2022-11-01T01:24:55.533Z,98701.97
2022-11-01T01:27:22.492Z,98691.50
2022-11-01T01:29:49.125Z,98699.31
2022-11-01T01:32:17.902Z,98690.53
2022-11-01T01:34:44.557Z,98687.97
2022-11-01T01:37:12.085Z,98688.06
2022-11-01T01:39:38.849Z,98668.44
2022-11-01T01:42:16.966Z,98691.59
2022-11-01T01:45:04.572Z,98688.06
2022-11-01T01:47:37.055Z,98689.06
2022-11-01T01:50:13.519Z,98690.88
2022-11-01T01:52:59.008Z,98683.88
2022-11-01T01:55:36.724Z,98682.06
2022-11-01T01:58:04.930Z,98662.81
2022-11-01T02:00:31.466Z,98682.16
2022-11-01T02:02:58.423Z,98672.66
2022-11-01T02:05:34.854Z,98670.97
2022-11-01T02:08:03.132Z,98673.38
2022-11-01T02:10:31.132Z,98668.69
2022-11-01T02:12:58.163Z,98670.84
2022-11-01T02:15:35.110Z,98674.47
2022-11-01T02:18:08.570Z,98667.47
2022-11-01T02:21:06.727Z,98670.00
2022-11-01T02:23:51.721Z,98679.91
2022-11-01T02:26:38.341Z,98668.44
2022-11-01T02:29:43.648Z,98680.03
2022-11-01T02:32:25.116Z,98680.16
2022-11-01T02:35:11.235Z,98687.28
2022-11-01T02:37:47.194Z,98679.44
2022-11-01T02:40:27.764Z,98675.81
2022-11-01T02:43:01.732Z,98676.78
2022-11-01T02:45:37.088Z,98668.81
2022-11-01T02:48:05.314Z,98669.81
2022-11-01T02:50:41.970Z,98670.63
2022-11-01T02:53:08.659Z,98675.94
2022-11-01T02:55:36.048Z,98660.88
2022-11-01T02:58:06.243Z,98676.91
2022-11-01T03:00:35.662Z,98675.22
2022-11-01T03:03:11.143Z,98679.56
2022-11-01T03:05:43.494Z,98676.22
2022-11-01T03:08:18.261Z,98670.91
2022-11-01T03:11:08.266Z,98667.38
2022-11-01T03:14:05.538Z,98666.56
2022-11-01T03:16:36.640Z,98668.34
2022-11-01T03:19:15.372Z,98664.84
2022-11-01T03:21:52.450Z,98660.50
2022-11-01T03:24:38.248Z,98640.28
2022-11-01T03:27:13.382Z,98664.13
2022-11-01T03:29:44.331Z,98663.31
2022-11-01T03:32:11.742Z,98660.66
2022-11-01T03:34:40.626Z,98667.75
2022-11-01T03:37:11.210Z,98665.09
2022-11-01T03:39:46.892Z,98671.41
2022-11-01T03:42:18.682Z,98680.19
2022-11-01T03:44:49.376Z,98672.38
2022-11-01T03:47:16.505Z,98690.94
2022-11-01T03:49:42.996Z,98682.97
2022-11-01T03:52:09.894Z,98674.41
2022-11-01T03:54:36.387Z,98670.66
2022-11-01T03:57:03.032Z,98673.31
2022-11-01T03:59:29.698Z,98678.63
2022-11-01T04:01:56.453Z,98673.31
2022-11-01T04:04:23.134Z,98672.47
2022-11-01T04:06:50.901Z,98681.41
2022-11-01T04:09:17.395Z,98659.31
2022-11-01T04:11:43.962Z,98654.00
2022-11-01T04:14:29.431Z,98669.94
2022-11-01T04:17:14.759Z,98657.63
2022-11-01T04:19:59.759Z,98660.28
2022-11-01T04:22:26.337Z,98653.41
2022-11-01T04:24:52.821Z,98649.94
2022-11-01T04:27:19.382Z,98648.09
2022-11-01T04:29:45.858Z,98645.47
2022-11-01T04:32:12.406Z,98645.72
2022-11-01T04:34:45.079Z,98653.41
2022-11-01T04:37:12.734Z,98661.38
2022-11-01T04:39:39.457Z,98629.56
2022-11-01T04:42:06.135Z,98656.22
2022-11-01T04:44:32.647Z,98653.56
2022-11-01T04:46:59.303Z,98646.41
2022-11-01T04:49:25.860Z,98635.94
2022-11-01T04:51:52.511Z,98640.41
2022-11-01T04:54:19.053Z,98629.91
2022-11-01T04:56:45.621Z,98620.16
2022-11-01T04:59:12.154Z,98628.94
2022-11-01T05:01:38.791Z,98623.63
2022-11-01T05:04:05.420Z,98626.28
2022-11-01T05:06:32.072Z,98627.25
2022-11-01T05:08:58.565Z,98638.84
2022-11-01T05:11:25.824Z,98633.78
2022-11-01T05:13:52.614Z,98632.22
2022-11-01T05:16:20.478Z,98629.81
2022-11-01T05:18:47.918Z,98624.91
2022-11-01T05:21:14.657Z,98637.44
2022-11-01T05:23:41.175Z,98636.84
2022-11-01T05:26:07.827Z,98633.44
2022-11-01T05:28:34.725Z,98633.59
2022-11-01T05:31:01.403Z,98625.88
2022-11-01T05:33:28.063Z,98642.63
2022-11-01T05:35:54.836Z,98635.63
2022-11-01T05:38:21.427Z,98625.88
2022-11-01T05:40:48.216Z,98624.78
2022-11-01T05:43:15.132Z,98628.16
2022-11-01T05:45:42.187Z,98628.16
2022-11-01T05:48:09.287Z,98637.94
2022-11-01T05:50:35.979Z,98622.97
2022-11-01T05:53:08.997Z,98624.94
2022-11-01T05:55:36.694Z,98627.94
2022-11-01T05:58:03.530Z,98620.22
2022-11-01T06:00:30.153Z,98628.78
2022-11-01T06:03:00.632Z,98610.19
2022-11-01T06:05:28.447Z,98635.16
2022-11-01T06:07:55.344Z,98649.41
2022-11-01T06:10:22.099Z,98648.66
2022-11-01T06:12:48.921Z,98645.16
2022-11-01T06:15:15.489Z,98641.91
2022-11-01T06:17:42.008Z,98646.25
2022-11-01T06:20:09.081Z,98650.72
2022-11-01T06:22:36.312Z,98649.03
2022-11-01T06:25:03.843Z,98656.03
2022-11-01T06:27:30.399Z,98651.69
2022-11-01T06:29:57.027Z,98642.75
2022-11-01T06:32:23.568Z,98644.69
2022-11-01T06:34:50.120Z,98659.03
2022-11-01T06:37:16.656Z,98658.31
2022-11-01T06:39:43.341Z,98667.22
2022-11-01T06:42:10.207Z,98656.75
2022-11-01T06:44:36.847Z,98662.16
2022-11-01T06:47:04.393Z,98671.91
2022-11-01T06:51:49.190Z,98668.56
2022-11-01T06:54:15.759Z,98673.13
2022-11-01T06:56:42.364Z,98672.31
2022-11-01T06:59:08.961Z,98674.97
2022-11-01T07:01:35.772Z,98655.19
2022-11-01T07:04:02.620Z,98665.44
2022-11-01T07:06:30.855Z,98605.41
2022-11-01T07:08:59.390Z,98662.78
2022-11-01T07:11:31.303Z,98657.47
2022-11-01T07:13:59.220Z,98660.13
2022-11-01T07:16:26.326Z,98653.97
2022-11-01T07:18:52.994Z,98628.28
2022-11-01T07:21:19.668Z,98653.13
2022-11-01T07:23:46.349Z,98660.13
2022-11-01T07:26:12.915Z,98655.66
2022-11-01T07:28:39.638Z,98655.66
2022-11-01T07:31:06.778Z,98655.66
2022-11-01T07:33:33.644Z,98659.03
2022-11-01T07:36:01.576Z,98653.75
2022-11-01T07:38:28.171Z,98654.56
2022-11-01T07:40:54.789Z,98653.75
2022-11-01T07:43:21.576Z,98635.06
2022-11-01T07:48:17.318Z,98639.50
2022-11-01T07:50:44.635Z,98636.97
2022-11-01T07:53:19.003Z,98637.84
2022-11-01T07:55:46.707Z,98644.94
2022-11-01T07:58:14.402Z,98643.97
2022-11-01T08:00:42.106Z,98643.97
2022-11-01T08:05:35.974Z,98655.53
2022-11-01T08:08:03.601Z,98652.88
2022-11-01T08:10:30.464Z,98650.09
2022-11-01T08:13:05.163Z,98657.09
2022-11-01T08:15:32.185Z,98651.78
2022-11-01T08:17:59.469Z,98644.69
2022-11-01T08:20:26.527Z,98649.13
2022-11-01T08:22:53.730Z,98641.09
2022-11-01T08:25:20.870Z,98641.91
2022-11-01T08:27:47.714Z,98647.09
2022-11-01T08:30:15.970Z,98640.94
2022-11-01T08:32:42.496Z,98647.94
2022-11-01T08:37:25.507Z,98634.69
2022-11-01T08:39:52.046Z,98637.22
2022-11-01T08:42:19.063Z,98637.22
2022-11-01T08:44:45.731Z,98632.75
2022-11-01T08:47:12.549Z,98627.81
2022-11-01T08:49:39.115Z,98629.13
2022-11-01T08:52:06.235Z,98642.38
2022-11-01T08:54:34.230Z,98638.78
2022-11-01T08:57:05.513Z,98643.25
2022-11-01T08:59:32.075Z,98627.69
2022-11-01T09:04:19.990Z,98650.94
2022-11-01T09:06:46.988Z,98648.28
2022-11-01T09:09:13.485Z,98667.59
2022-11-01T09:11:40.003Z,98656.97
2022-11-01T09:14:06.537Z,98656.84
2022-11-01T09:16:33.179Z,98661.19
2022-11-01T09:19:01.612Z,98644.81
2022-11-01T09:21:31.788Z,98649.50
2022-11-01T09:23:59.127Z,98646.00
2022-11-01T09:26:27.230Z,98652.16
2022-11-01T09:28:58.643Z,98665.41
2022-11-01T09:31:25.893Z,98663.53
2022-11-01T09:33:55.226Z,98654.69
2022-11-01T09:36:21.848Z,98650.25
2022-11-01T09:38:48.326Z,98643.25
2022-11-01T09:41:29.850Z,98643.25
2022-11-01T09:43:59.422Z,98653.88
2022-11-01T09:46:37.291Z,98652.16
2022-11-01T09:49:06.683Z,98646.84
2022-11-01T09:51:33.344Z,98640.72
2022-11-01T09:54:04.305Z,98632.75
2022-11-01T09:57:07.774Z,98646.00
2022-11-01T09:59:39.312Z,98640.81
2022-11-01T10:02:41.312Z,98646.97
2022-11-01T10:05:14.444Z,98645.16
2022-11-01T10:08:23.250Z,98647.81
2022-11-01T10:11:08.596Z,98651.31
2022-11-01T10:13:54.198Z,98654.69
2022-11-01T10:16:42.011Z,98640.94
2022-11-01T10:19:16.194Z,98649.41
2022-11-01T10:21:49.875Z,98640.59
2022-11-01T10:24:35.094Z,98651.09
2022-11-01T10:27:22.730Z,98649.16
2022-11-01T10:30:12.087Z,98646.63
2022-11-01T10:32:52.604Z,98662.44
2022-11-01T10:35:30.541Z,98667.75
2022-11-01T10:38:30.190Z,98662.16
2022-11-01T10:41:09.502Z,98650.72
2022-11-01T10:43:41.260Z,98653.25
2022-11-01T10:46:17.935Z,98639.03
2022-11-01T10:48:52.468Z,98635.41
2022-11-01T10:51:27.503Z,98641.41
2022-11-01T10:53:59.956Z,98631.53
2022-11-01T10:56:31.045Z,98628.66
2022-11-01T10:58:57.587Z,98623.06
2022-11-01T11:01:28.124Z,98618.50
2022-11-01T11:04:03.622Z,98614.16
2022-11-01T11:06:39.779Z,98605.91
2022-11-01T11:09:07.414Z,98582.06
2022-11-01T11:11:41.447Z,98613.06
2022-11-01T11:14:09.838Z,98609.44
2022-11-01T11:16:45.723Z,98613.88
2022-11-01T11:21:34.078Z,98600.75
2022-11-01T11:24:02.000Z,98599.78
2022-11-01T11:26:38.894Z,98610.16
2022-11-01T11:29:05.979Z,98608.47
2022-11-01T11:31:36.031Z,98604.84
2022-11-01T11:36:27.564Z,98601.22
2022-11-01T11:38:55.016Z,98607.25
2022-11-01T11:41:36.579Z,98595.31
2022-11-01T11:44:03.681Z,98586.66
2022-11-01T11:46:30.268Z,98593.00
2022-11-01T11:49:04.553Z,98595.53
2022-11-01T11:51:41.852Z,98602.28
2022-11-01T11:54:24.257Z,98597.69
2022-11-01T11:56:53.210Z,98597.53
2022-11-01T11:59:26.148Z,98594.06
2022-11-01T12:02:03.442Z,98587.94
2022-11-01T12:04:51.662Z,98592.22
2022-11-01T12:07:31.632Z,98579.97
2022-11-01T12:12:30.102Z,98592.22
2022-11-01T12:14:58.046Z,98578.97
2022-11-01T12:17:27.368Z,98583.31
2022-11-01T12:20:20.314Z,98578.97
2022-11-01T12:22:51.544Z,98577.03
2022-11-01T12:25:22.203Z,98574.38
2022-11-01T12:30:21.420Z,98583.22
2022-11-01T12:32:55.060Z,98588.50
2022-11-01T12:35:32.284Z,98586.81
2022-11-01T12:38:20.646Z,98593.94
2022-11-01T12:40:52.351Z,98591.53
2022-11-01T12:43:38.436Z,98596.13
2022-11-01T12:46:33.709Z,98594.56
2022-11-01T12:49:08.633Z,98594.84
2022-11-01T12:51:42.487Z,98598.56
2022-11-01T12:54:17.160Z,98596.16
2022-11-01T12:56:43.822Z,98599.78
2022-11-01T12:59:13.739Z,98592.91
2022-11-01T13:01:51.794Z,98596.31
2022-11-01T13:04:34.503Z,98603.53
2022-11-01T13:07:12.989Z,98599.19
2022-11-01T13:10:02.995Z,98603.78
2022-11-01T13:12:52.988Z,98612.72
2022-11-01T13:15:29.356Z,98618.25
2022-11-01T13:18:23.072Z,98614.88
2022-11-01T13:21:07.111Z,98608.88
2022-11-01T13:23:38.310Z,98608.88
2022-11-01T13:26:15.376Z,98615.88
2022-11-01T13:28:45.019Z,98607.06
2022-11-01T13:31:47.451Z,98621.19
2022-11-01T13:34:23.980Z,98621.19
2022-11-01T13:37:02.886Z,98619.34
2022-11-01T13:39:49.646Z,98627.31
2022-11-01T13:42:21.522Z,98622.16
2022-11-01T13:44:55.258Z,98622.97
2022-11-01T13:47:38.359Z,98629.25
2022-11-01T13:50:37.262Z,98625.75
2022-11-01T13:53:19.604Z,98618.91
2022-11-01T13:56:01.114Z,98609.25
2022-11-01T13:58:28.615Z,98631.44
2022-11-01T14:00:56.234Z,98629.03
2022-11-01T14:03:32.602Z,98637.06
2022-11-01T14:06:11.183Z,98637.31
2022-11-01T14:08:47.124Z,98637.56
2022-11-01T14:11:42.359Z,98635.03
2022-11-01T14:14:30.719Z,98633.47
2022-11-01T14:17:16.254Z,98636.25
2022-11-01T14:19:43.925Z,98637.09
2022-11-01T14:22:22.400Z,98644.91
2022-11-01T14:24:54.054Z,98649.38
2022-11-01T14:27:35.020Z,98645.63
2022-11-01T14:30:07.256Z,98657.13
2022-11-01T14:32:33.887Z,98651.53
2022-11-01T14:35:15.410Z,98656.72
2022-11-01T14:37:49.756Z,98657.44
2022-11-01T14:40:43.845Z,98653.88
2022-11-01T14:43:21.195Z,98654.69
2022-11-01T14:46:09.583Z,98660.88
2022-11-01T14:48:39.094Z,98665.41
2022-11-01T14:51:11.332Z,98668.81
2022-11-01T14:53:39.942Z,98678.44
2022-11-01T14:56:17.327Z,98676.66
2022-11-01T14:58:44.465Z,98684.63
2022-11-01T15:01:23.426Z,98667.47
2022-11-01T15:03:59.089Z,98680.13
2022-11-01T15:06:30.973Z,98681.09
2022-11-01T15:08:58.576Z,98679.44
2022-11-01T15:11:33.956Z,98680.28
2022-11-01T15:14:04.807Z,98675.78
2022-11-01T15:16:35.424Z,98681.09
2022-11-01T15:19:06.186Z,98683.75
2022-11-01T15:21:34.556Z,98688.22
2022-11-01T15:24:03.056Z,98697.00
2022-11-01T15:26:33.232Z,98669.63
2022-11-01T15:29:06.820Z,98693.66
2022-11-01T15:31:38.326Z,98692.69
2022-11-01T15:34:21.567Z,98700.66
2022-11-01T15:36:48.337Z,98698.97
2022-11-01T15:39:26.462Z,98694.50
2022-11-01T15:41:56.897Z,98692.75
2022-11-01T15:44:24.742Z,98706.94
2022-11-01T15:46:54.545Z,98708.69
2022-11-01T15:49:32.446Z,98707.84
2022-11-01T15:52:05.947Z,98698.19
2022-11-01T15:54:57.706Z,98707.03
2022-11-01T15:59:46.458Z,98712.31
2022-11-01T16:02:22.663Z,98719.56
2022-11-01T16:04:49.596Z,98717.03
2022-11-01T16:07:19.542Z,98708.22
2022-11-01T16:09:58.687Z,98712.81
2022-11-01T16:12:32.231Z,98716.44
2022-11-01T16:15:18.543Z,98715.56
2022-11-01T16:17:49.429Z,98716.53
2022-11-01T16:20:29.743Z,98723.53
2022-11-01T16:23:04.322Z,98722.91
2022-11-01T16:25:33.219Z,98677.84
2022-11-01T16:28:05.270Z,98711.81
2022-11-01T16:30:50.360Z,98717.00
2022-11-01T16:33:22.815Z,98734.13
2022-11-01T16:36:18.635Z,98741.13
2022-11-01T16:38:52.915Z,98739.34
2022-11-01T16:41:25.691Z,98738.47
2022-11-01T16:43:54.746Z,98748.25
2022-11-01T16:46:23.679Z,98750.78
2022-11-01T16:48:54.530Z,98756.09
2022-11-01T16:56:36.579Z,98759.56
2022-11-01T16:59:36.267Z,98745.22
2022-11-01T17:02:15.312Z,98772.72
2022-11-01T17:04:43.639Z,98751.00
2022-11-01T17:07:11.948Z,98770.78
2022-11-01T17:09:39.773Z,98759.94
2022-11-01T17:12:07.618Z,98769.81
2022-11-01T17:14:37.418Z,98766.34
2022-11-01T17:17:08.663Z,98768.03
2022-11-01T17:19:40.862Z,98774.31
2022-11-01T17:22:19.568Z,98774.41
2022-11-01T17:24:46.370Z,98776.22
2022-11-01T17:27:13.974Z,98784.19
2022-11-01T17:29:40.673Z,98780.69
2022-11-01T17:32:11.309Z,98780.69
2022-11-01T17:36:59.333Z,98792.97
2022-11-01T17:39:28.452Z,98782.13
2022-11-01T17:41:55.477Z,98791.19
2022-11-01T17:44:22.787Z,98791.19
2022-11-01T17:46:49.374Z,98777.66
2022-11-01T17:49:16.838Z,98793.22
2022-11-01T17:51:43.777Z,98790.44
2022-11-01T17:54:10.581Z,98793.22
2022-11-01T17:56:37.430Z,98795.03
2022-11-01T17:59:04.070Z,98801.19
2022-11-01T18:01:30.693Z,98808.31
2022-11-01T18:03:57.388Z,98807.44
2022-11-01T18:06:23.939Z,98811.03
2022-11-01T18:08:52.147Z,98805.75
2022-11-01T18:11:35.335Z,98805.88
2022-11-01T18:14:40.726Z,98805.88
2022-11-01T18:17:32.105Z,98813.00
2022-11-01T18:20:13.465Z,98813.94
2022-11-01T18:22:42.714Z,98811.31
2022-11-01T18:25:24.412Z,98803.44
2022-11-01T18:27:51.264Z,98815.88
2022-11-01T18:30:19.940Z,98814.19
2022-11-01T18:33:14.666Z,98822.13
2022-11-01T18:35:47.596Z,98821.31
2022-11-01T18:38:32.274Z,98814.44
2022-11-01T18:41:03.314Z,98819.81
2022-11-01T18:43:38.083Z,98823.22
2022-11-01T18:46:29.646Z,98820.69
2022-11-01T18:49:02.028Z,98823.34
2022-11-01T18:51:34.258Z,98827.69
2022-11-01T18:54:19.715Z,98829.38
2022-11-01T18:56:51.085Z,98827.69
2022-11-01T18:59:32.897Z,98832.03
2022-11-01T19:02:11.259Z,98833.69
2022-11-01T19:04:42.541Z,98839.88
2022-11-01T19:07:23.695Z,98843.34
2022-11-01T19:09:55.902Z,98842.38
2022-11-01T19:12:40.169Z,98843.22
2022-11-01T19:15:20.125Z,98844.91
2022-11-01T19:17:54.407Z,98852.88
2022-11-01T19:20:32.290Z,98850.13
2022-11-01T19:23:09.831Z,98843.84
2022-11-01T19:25:37.046Z,98844.69
2022-11-01T19:28:15.091Z,98835.16
2022-11-01T19:30:51.206Z,98835.53
2022-11-01T19:33:32.959Z,98849.88
2022-11-01T19:36:03.975Z,98855.19
2022-11-01T19:38:30.979Z,98846.41
2022-11-01T19:40:57.704Z,98856.13
2022-11-01T19:43:27.048Z,98862.31
2022-11-01T19:45:56.033Z,98856.13
2022-11-01T19:48:26.881Z,98844.56
2022-11-01T19:50:57.137Z,98866.75
2022-11-01T19:53:33.371Z,98858.44
2022-11-01T19:56:06.300Z,98867.63
2022-11-01T19:58:53.778Z,98874.72
2022-11-01T20:01:46.339Z,98866.75
2022-11-01T20:04:26.058Z,98866.88
2022-11-01T20:07:01.890Z,98874.72
2022-11-01T20:09:36.690Z,98872.41
2022-11-01T20:12:03.477Z,98873.00
2022-11-01T20:16:46.330Z,98888.72
2022-11-01T20:19:17.416Z,98893.06
2022-11-01T20:21:50.434Z,98881.34
2022-11-01T20:24:17.221Z,98897.41
2022-11-01T20:26:43.832Z,98894.75
2022-11-01T20:29:10.939Z,98894.63
2022-11-01T20:31:37.512Z,98883.53
2022-11-01T20:34:04.359Z,98885.72
2022-11-01T20:36:30.946Z,98891.84
2022-11-01T20:38:57.572Z,98898.84
2022-11-01T20:41:24.892Z,98897.94
2022-11-01T20:43:51.594Z,98896.13
2022-11-01T20:46:18.576Z,98895.28
2022-11-01T20:48:45.366Z,98893.34
2022-11-01T20:51:13.349Z,98901.28
2022-11-01T20:53:43.023Z,98903.84
2022-11-01T20:56:09.651Z,98898.53
2022-11-01T20:58:40.337Z,98899.38
2022-11-01T21:01:15.449Z,98898.84
2022-11-01T21:03:43.743Z,98901.91
2022-11-01T21:06:13.529Z,98907.13
2022-11-01T21:08:40.487Z,98906.25
2022-11-01T21:11:14.065Z,98908.81
2022-11-01T21:13:48.170Z,98912.31
2022-11-01T21:16:28.038Z,98917.59
2022-11-01T21:19:02.073Z,98916.66
2022-11-01T21:21:42.441Z,98913.88
2022-11-01T21:24:31.127Z,98927.13
2022-11-01T21:27:12.877Z,98921.00
2022-11-01T21:29:48.043Z,98921.84
2022-11-01T21:32:29.672Z,98927.88
2022-11-01T21:34:59.227Z,98929.44
2022-11-01T21:37:29.699Z,98914.72
2022-11-01T21:40:05.712Z,98923.06
2022-11-01T21:42:36.734Z,98924.16
2022-11-01T21:45:33.360Z,98930.69
2022-11-01T21:48:13.803Z,98929.59
2022-11-01T21:50:40.315Z,98929.59
2022-11-01T21:53:07.109Z,98934.56
2022-11-01T21:55:34.571Z,98928.16
2022-11-01T21:58:01.103Z,98926.22
2022-11-01T22:00:27.741Z,98920.69
2022-11-01T22:02:54.312Z,98915.25
2022-11-01T22:05:20.927Z,98920.44
2022-11-01T22:07:47.783Z,98920.34
2022-11-01T22:10:14.411Z,98921.03
2022-11-01T22:12:40.886Z,98927.91
2022-11-01T22:15:07.970Z,98927.81
2022-11-01T22:17:34.519Z,98928.53
2022-11-01T22:20:01.353Z,98924.78
2022-11-01T22:22:27.888Z,98928.19
2022-11-01T22:24:54.499Z,98921.91
2022-11-01T22:27:21.014Z,98924.44
2022-11-01T22:29:47.573Z,98924.31
2022-11-01T22:32:14.155Z,98925.06
2022-11-01T22:34:40.785Z,98916.13
2022-11-01T22:37:15.313Z,98916.94
2022-11-01T22:39:42.102Z,98919.50
2022-11-01T22:42:13.528Z,98919.38
2022-11-01T22:44:44.176Z,98920.22
2022-11-01T22:47:23.596Z,98929.06
2022-11-01T22:49:55.620Z,98916.59
2022-11-01T22:52:31.034Z,98927.97
2022-11-01T22:55:08.289Z,98925.31
2022-11-01T22:57:50.147Z,98919.03
2022-11-01T23:02:47.481Z,98925.22
2022-11-01T23:05:20.325Z,98924.34
2022-11-01T23:07:54.923Z,98918.44
2022-11-01T23:10:25.233Z,98918.28
2022-11-01T23:13:18.812Z,98923.59
2022-11-01T23:15:45.954Z,98927.34
2022-11-01T23:18:27.244Z,98922.16
2022-11-01T23:21:00.251Z,98910.91
2022-11-01T23:23:27.472Z,98928.66
2022-11-01T23:25:55.622Z,98922.66
2022-11-01T23:28:24.215Z,98902.22
2022-11-01T23:30:51.698Z,98924.44
2022-11-01T23:38:19.893Z,98916.59
2022-11-01T23:40:48.261Z,98915.75
2022-11-01T23:43:20.959Z,98922.03
2022-11-01T23:45:47.727Z,98909.94
2022-11-01T23:48:14.307Z,98917.69
2022-11-01T23:53:13.141Z,98913.47
2022-11-01T23:55:48.280Z,98911.78
2022-11-01T23:58:21.005Z,98913.69
